To NAV CANADA Home Page Login to a new session Search on AWWS site Feedback and Comments Disclaimer Vers la page française équivalente Tips FAQ What's new on the site To the Forecasts and Observations / NOTAM section To "File a Flight Plan" website Publications and other links Update of the User's profile FIC Telephone Numbers My Weather Data Folder Route Weather Data Regional Weather Data Local Weather Data To the Forecasts and Observations / NOTAM section
Request Generated 07/31/2015 at 19:24:28 UTC . Weather information available at that time is displayed.

METAR/TAF

NAIN/NL    

METAR CYDP 311900Z VRB02KT 15SM SCT020 OVC080 09/07 A2961 RMK SC4AS4
SLP028=
METAR CYDP 311800Z 00000KT 15SM SCT020 OVC025 08/07 A2962 RMK SC4ST4
SLP031=
SPECI CYDP 311712Z 09006KT 15SM SCT020 BKN080 OVC200 08/07 A2964 RMK
SC4AC2CI2 SLP037=
METAR CYDP 311700Z 08007KT 15SM FEW008 SCT080 OVC200 08/07 A2964 RMK
SC2AC2CI4 SLP037=

TAF CYDP 311339Z 3114/3123 06005KT 1/4SM FG VV003 TEMPO 3114/3116 3SM
-DZ BR BKN006 OVC012
FM311600 06008KT P6SM SCT010 OVC050 TEMPO 3116/3118 3SM BR BKN010
FM311800 06010KT 6SM -SHRA BR SCT012 OVC070 TEMPO 3118/3123
21/2SM -SHRA BR BKN006 OVC015 PROB30 3120/3123 1/2SM FG VV002
RMK NXT FCST BY 312000Z=
Your time UTC time
Weather data provided by Environment Canada and NAV CANADA